Time;durP1;ratioP1;P1;durP2;ratioP2;P2;SDS_P1;SDS_P2;PMS_P1;PMS_P2;Temp;Humidity;BMP_temperature;BMP_pressure;BME280_temperature;BME280_humidity;BME280_pressure;Samples;Min_cycle;Max_cycle;Signal;HPM_P1;HPM_P2
2023/08/24 00:00:12;;;;;;;;;7.00;6.67;;;;;26.98;54.35;101276.44;2012600;28;2742025;-74
2023/08/24 00:01:23;;;;;;;;;10.50;10.50;;;;;26.99;54.15;101279.97;2029236;27;2791954;-75
2023/08/24 00:02:34;;;;;;;;;8.00;8.00;;;;;26.97;54.00;101267.47;2045551;27;2750284;-76
2023/08/24 00:03:48;;;;;;;;;10.75;10.00;;;;;26.98;54.44;101268.34;2054084;27;2791910;-75
2023/08/24 00:05:00;;;;;;;;;9.67;9.67;;;;;26.97;54.18;101267.47;2009369;27;2765849;-75
2023/08/24 00:06:12;;;;;;;;;12.67;11.00;;;;;26.98;53.97;101273.72;2032983;27;2787716;-75
2023/08/24 00:07:23;;;;;;;;;12.00;10.00;;;;;26.97;54.05;101272.03;2034420;27;2783634;-75
2023/08/24 00:08:34;;;;;;;;;10.00;10.00;;;;;26.96;53.92;101270.34;2030739;27;2790354;-75
2023/08/24 00:09:45;;;;;;;;;11.50;10.50;;;;;26.96;54.25;101271.19;2017999;28;2788273;-75
2023/08/24 00:10:56;;;;;;;;;10.00;10.00;;;;;26.97;54.17;101269.31;2012183;28;2791949;-75
2023/08/24 00:12:07;;;;;;;;;10.00;10.00;;;;;26.96;54.20;101259.56;2018061;27;2789814;-75
2023/08/24 00:13:18;;;;;;;;;9.00;9.00;;;;;26.96;54.04;101265.81;2026777;27;2750296;-75
2023/08/24 00:14:31;;;;;;;;;11.60;10.00;;;;;26.96;54.13;101265.81;2031835;27;1827366;-75
2023/08/24 00:15:42;;;;;;;;;11.00;9.50;;;;;26.96;54.55;101259.56;2004365;27;2766971;-75
2023/08/24 00:16:53;;;;;;;;;10.50;9.50;;;;;26.96;54.40;101252.31;2050794;27;2780492;-75
2023/08/24 00:18:06;;;;;;;;;11.20;11.20;;;;;26.95;53.98;101239.81;2031848;27;2804413;-75
2023/08/24 00:19:20;;;;;;;;;11.43;10.00;;;;;26.95;54.62;101239.81;2064041;27;1820071;-75
2023/08/24 00:20:34;;;;;;;;;9.00;8.83;;;;;26.96;53.95;101241.53;2067162;27;1821139;-75
2023/08/24 00:21:47;;;;;;;;;7.67;7.17;;;;;26.96;54.16;101238.84;2045616;27;1820078;-75
2023/08/24 00:23:01;;;;;;;;;16.71;11.71;;;;;26.98;54.09;101241.38;2038232;27;1823235;-75
2023/08/24 00:24:12;;;;;;;;;11.50;11.00;;;;;26.96;54.27;101246.94;2021808;28;2792970;-74
2023/08/24 00:25:23;;;;;;;;;11.25;10.00;;;;;26.97;54.42;101251.31;2022262;27;2782543;-73
2023/08/24 00:26:34;;;;;;;;;11.00;9.50;;;;;26.97;54.35;101242.34;2014644;27;2777378;-73
2023/08/24 00:27:47;;;;;;;;;13.00;11.40;;;;;26.97;54.61;101240.50;2032274;28;1818026;-73
2023/08/24 00:29:01;;;;;;;;;9.57;9.00;;;;;26.96;54.43;101238.84;2047695;28;1815914;-73
2023/08/24 00:30:11;;;;;;;;;9.00;9.00;;;;;26.96;54.46;101244.22;2017421;27;2740914;-73
2023/08/24 00:31:22;;;;;;;;;12.50;11.00;;;;;26.97;54.23;101247.75;2017977;27;2804397;-73
2023/08/24 00:32:34;;;;;;;;;10.50;9.00;;;;;26.97;54.58;101250.44;2023979;27;2759659;-73
2023/08/24 00:33:45;;;;;;;;;10.50;10.00;;;;;26.96;54.76;101246.06;2009439;27;2788836;-73
2023/08/24 00:34:56;;;;;;;;;10.50;10.50;;;;;26.95;54.61;101245.22;2024917;27;2779454;-73
2023/08/24 00:36:07;;;;;;;;;13.00;11.00;;;;;26.95;54.88;101239.81;2019482;28;2791922;-73
2023/08/24 00:37:18;;;;;;;;;11.50;9.00;;;;;26.95;54.48;101238.97;2011044;28;2772146;-73
2023/08/24 00:38:31;;;;;;;;;10.83;10.67;;;;;26.96;54.59;101248.75;2036789;27;2784666;-73
2023/08/24 00:39:43;;;;;;;;;12.00;10.40;;;;;26.93;54.50;101247.22;2038633;27;2777331;-73
2023/08/24 00:40:55;;;;;;;;;9.00;8.00;;;;;26.93;54.81;101243.66;2026052;27;2749245;-75
2023/08/24 00:42:13;;;;;;;;;14.60;11.00;;;;;26.92;54.40;101245.50;2043475;27;2784659;-76
2023/08/24 00:43:24;;;;;;;;;13.50;11.00;;;;;26.93;54.76;101249.06;2008748;27;2801337;-76
2023/08/24 00:44:35;;;;;;;;;11.00;9.00;;;;;26.91;54.40;101249.22;2007782;27;2760661;-75
2023/08/24 00:45:45;;;;;;;;;13.00;10.00;;;;;26.92;54.71;101252.72;2030352;27;2789873;-75
2023/08/24 00:46:58;;;;;;;;;11.00;11.00;;;;;26.91;54.45;101254.59;2015236;28;2789878;-75
2023/08/24 00:48:09;;;;;;;;;5.00;3.33;;;;;26.90;54.66;101252.88;2024695;28;2748579;-73
2023/08/24 00:49:21;;;;;;;;;8.00;7.50;;;;;26.91;54.58;101253.75;2030634;27;2746854;-73
2023/08/24 00:50:32;;;;;;;;;9.00;9.00;;;;;26.90;54.55;101250.19;2023142;28;2753385;-75
2023/08/24 00:51:43;;;;;;;;;11.25;11.00;;;;;26.90;54.84;101257.44;2009866;28;2784602;-75
2023/08/24 00:52:55;;;;;;;;;10.80;10.00;;;;;26.90;54.57;101262.81;2036582;27;1820075;-74
2023/08/24 00:54:05;;;;;;;;;10.00;10.00;;;;;26.89;54.60;101258.44;2032469;27;2786751;-74
2023/08/24 00:55:16;;;;;;;;;9.00;9.00;;;;;26.90;54.76;101265.50;2015577;27;2753386;-74
2023/08/24 00:56:29;;;;;;;;;11.50;10.00;;;;;26.89;54.87;101261.97;2034219;27;2782928;-74
2023/08/24 00:57:42;;;;;;;;;9.80;9.80;;;;;26.88;54.45;101259.41;2031102;27;2778336;-74
2023/08/24 00:58:54;;;;;;;;;13.00;10.00;;;;;26.88;54.38;101259.41;2037245;27;2787720;-74
2023/08/24 01:00:05;;;;;;;;;9.50;8.00;;;;;26.87;54.85;101269.34;2011145;27;2754454;-74
2023/08/24 01:01:18;;;;;;;;;10.00;9.00;;;;;26.88;54.46;101267.50;2031843;27;2758641;-74
2023/08/24 01:02:28;;;;;;;;;12.00;10.00;;;;;26.86;54.55;101264.97;2008743;27;2788227;-74
2023/08/24 01:03:40;;;;;;;;;10.60;10.20;;;;;26.85;55.28;101268.66;2038734;27;1823173;-74
2023/08/24 01:04:53;;;;;;;;;9.50;8.83;;;;;26.84;54.98;101261.56;2056504;27;1821674;-74
2023/08/24 01:06:07;;;;;;;;;9.00;8.17;;;;;26.83;55.04;101262.56;2028391;28;1821167;-73
2023/08/24 01:07:18;;;;;;;;;10.00;10.00;;;;;26.81;55.09;101262.72;2025043;27;2774237;-73
2023/08/24 01:08:28;;;;;;;;;6.33;6.33;;;;;26.80;54.48;101261.00;2012576;28;1815935;-73
2023/08/24 01:09:40;;;;;;;;;7.00;7.00;;;;;26.80;54.78;101263.69;2021226;27;2739813;-73
2023/08/24 01:11:04;;;;;;;;;10.57;9.43;;;;;26.80;54.43;101268.22;2064810;27;1820082;-73
2023/08/24 01:12:30;;;;;;;;;11.00;11.00;;;;;26.80;54.53;101262.84;2031173;27;2795098;-73
2023/08/24 01:14:14;;;;;;;;;9.50;9.50;;;;;26.79;54.51;101258.47;2017054;27;2770048;-73
2023/08/24 01:15:37;;;;;;;;;11.00;10.00;;;;;26.77;55.16;101263.97;2052566;27;2788805;-73
2023/08/24 01:16:57;;;;;;;;;9.50;9.50;;;;;26.77;54.70;101260.47;2040376;27;1820101;-73
2023/08/24 01:18:14;;;;;;;;;9.80;9.80;;;;;26.73;54.67;101255.34;2032694;27;2761687;-73
2023/08/24 01:19:37;;;;;;;;;9.00;9.00;;;;;26.73;54.94;101259.88;2034221;27;2752336;-73
2023/08/24 01:20:49;;;;;;;;;11.00;10.00;;;;;26.70;55.22;101258.34;2023524;28;2784642;-73
2023/08/24 01:22:02;;;;;;;;;9.00;9.00;;;;;26.67;55.60;101255.91;2002228;27;2754911;-73
2023/08/24 01:23:37;;;;;;;;;8.50;8.00;;;;;26.66;55.04;101256.94;2026418;27;2738874;-73
2023/08/24 01:25:14;;;;;;;;;10.00;9.17;;;;;26.64;55.32;101250.84;2041964;27;1815939;-73
2023/08/24 01:26:25;;;;;;;;;10.00;10.00;;;;;26.62;55.17;101250.97;1985508;28;2787804;-73
2023/08/24 01:27:37;;;;;;;;;8.50;8.00;;;;;26.60;55.60;101252.97;2022689;28;2739868;-73
2023/08/24 01:28:51;;;;;;;;;9.17;8.50;;;;;26.59;56.07;101250.41;2059052;27;1825327;-73
2023/08/24 01:30:03;;;;;;;;;8.00;8.00;;;;;26.59;55.71;101253.13;2002644;28;2746090;-74
2023/08/24 01:31:17;;;;;;;;;11.00;10.00;;;;;26.57;55.31;101242.47;2058476;27;1820047;-74
2023/08/24 01:32:30;;;;;;;;;11.00;10.00;;;;;26.57;55.47;101249.72;2007228;27;2778392;-75
2023/08/24 01:33:44;;;;;;;;;10.83;8.50;;;;;26.55;56.05;101249.84;2050564;27;1820035;-75
2023/08/24 01:34:59;;;;;;;;;10.50;9.50;;;;;26.55;55.98;101249.00;2042308;27;1822235;-75
2023/08/24 01:36:12;;;;;;;;;10.00;9.00;;;;;26.55;55.54;101249.00;2011603;27;2763809;-75
2023/08/24 01:37:22;;;;;;;;;10.00;10.00;;;;;26.53;55.72;101241.06;2032292;27;2792995;-74
2023/08/24 01:38:34;;;;;;;;;8.00;8.00;;;;;26.52;56.10;101244.75;2024186;27;2751322;-73
2023/08/24 01:39:55;;;;;;;;;10.00;8.00;;;;;26.50;56.25;101239.50;2059998;27;2739837;-74
2023/08/24 01:41:24;;;;;;;;;9.50;8.00;;;;;26.48;55.74;101235.25;2023426;28;2754483;-74
2023/08/24 01:42:37;;;;;;;;;10.00;10.00;;;;;26.46;56.20;101238.09;1999826;27;2774226;-72
2023/08/24 01:43:53;;;;;;;;;9.00;9.00;;;;;26.43;56.27;101238.38;2010441;27;2752391;-71
2023/08/24 01:45:08;;;;;;;;;10.50;10.00;;;;;26.40;55.80;101236.78;1991947;28;2781513;-72
2023/08/24 01:46:21;;;;;;;;;12.00;11.00;;;;;26.38;55.80;101233.38;2000827;27;2787759;-72
2023/08/24 01:47:36;;;;;;;;;11.83;9.67;;;;;26.36;56.05;101234.53;2042243;27;1826387;-72
2023/08/24 01:48:47;;;;;;;;;9.00;9.00;;;;;26.34;55.99;101233.81;2002959;28;2755525;-72
2023/08/24 01:49:58;;;;;;;;;12.00;8.50;;;;;26.31;56.66;101226.88;2024777;27;2766934;-72
2023/08/24 01:51:10;;;;;;;;;9.50;9.50;;;;;26.28;56.11;101222.63;2015639;27;2773137;-73
2023/08/24 01:52:22;;;;;;;;;8.00;7.00;;;;;26.26;56.64;101224.63;2046421;27;1819146;-73
2023/08/24 01:53:33;;;;;;;;;11.00;11.00;;;;;26.25;56.65;101217.50;2032355;27;2786730;-75
2023/08/24 01:54:43;;;;;;;;;10.50;10.00;;;;;26.24;56.17;101213.13;2006369;27;2779833;-74
2023/08/24 01:55:55;;;;;;;;;7.20;7.20;;;;;26.21;56.36;101216.13;2041514;27;1820097;-74
2023/08/24 01:57:06;;;;;;;;;10.00;8.50;;;;;26.19;56.44;101218.09;2008500;27;2770127;-74
2023/08/24 01:58:17;;;;;;;;;8.00;8.00;;;;;26.17;57.07;101212.00;2017098;27;2744107;-75
2023/08/24 01:59:28;;;;;;;;;10.00;10.00;;;;;26.15;56.42;101216.69;2047772;27;2787764;-75
2023/08/24 02:00:39;;;;;;;;;10.00;10.00;;;;;26.13;56.65;101218.66;2025434;27;2787047;-75
2023/08/24 02:01:50;;;;;;;;;8.75;7.75;;;;;26.12;56.34;101216.97;2059860;27;1833596;-75
2023/08/24 02:03:01;;;;;;;;;10.00;8.00;;;;;26.11;57.00;101209.88;2027478;27;2766946;-75
2023/08/24 02:04:13;;;;;;;;;11.60;10.60;;;;;26.09;56.57;101212.72;2053093;28;1821171;-75
2023/08/24 02:05:28;;;;;;;;;11.33;9.00;;;;;26.07;57.07;101215.56;2049949;28;1821151;-75
2023/08/24 02:06:39;;;;;;;;;10.00;10.00;;;;;26.06;56.92;101213.84;2001640;28;2789838;-75
2023/08/24 02:07:50;;;;;;;;;8.25;8.00;;;;;26.06;56.98;101207.59;2026229;27;2737737;-73
2023/08/24 02:09:01;;;;;;;;;12.00;11.00;;;;;26.06;56.94;101207.59;2025618;27;2796089;-72
2023/08/24 02:10:12;;;;;;;;;14.00;11.00;;;;;26.05;57.44;101214.00;2026764;27;2784619;-74
2023/08/24 02:11:23;;;;;;;;;12.00;10.00;;;;;26.04;57.27;101202.38;2022299;27;2794065;-74
2023/08/24 02:12:35;;;;;;;;;10.80;10.80;;;;;26.04;56.68;101199.69;2029337;27;1820101;-73
2023/08/24 02:13:48;;;;;;;;;8.83;8.83;;;;;26.04;56.76;101199.69;2057251;27;1820082;-74
2023/08/24 02:14:58;;;;;;;;;9.50;9.00;;;;;26.06;56.94;101208.47;2009020;27;2760696;-74
2023/08/24 02:16:09;;;;;;;;;12.00;10.50;;;;;26.05;57.22;101206.75;2015129;28;2784607;-74
2023/08/24 02:17:20;;;;;;;;;10.00;10.00;;;;;26.04;57.32;101202.38;2040044;27;2776839;-75
2023/08/24 02:18:32;;;;;;;;;10.00;9.00;;;;;26.04;56.96;101199.69;2049554;27;2773165;-74
2023/08/24 02:19:44;;;;;;;;;9.00;8.60;;;;;26.03;57.30;101208.75;2041521;27;1820067;-74
2023/08/24 02:20:55;;;;;;;;;11.50;10.00;;;;;26.02;57.04;101198.13;2028980;27;2789830;-74
2023/08/24 02:22:05;;;;;;;;;11.00;9.50;;;;;26.00;57.59;101202.81;2017370;28;2780500;-74
2023/08/24 02:23:17;;;;;;;;;9.00;9.00;;;;;25.99;57.20;101203.78;2060214;27;1820153;-74
2023/08/24 02:24:31;;;;;;;;;10.43;8.57;;;;;25.98;57.79;101202.94;2060746;27;1820050;-74
2023/08/24 02:25:43;;;;;;;;;10.50;9.00;;;;;25.99;57.48;101196.56;2014397;28;2774215;-74
2023/08/24 02:26:53;;;;;;;;;10.00;10.00;;;;;25.99;57.01;101204.63;2000435;27;2785692;-74
2023/08/24 02:28:04;;;;;;;;;11.00;9.00;;;;;25.97;57.59;101193.16;2023718;27;3481457;-74
2023/08/24 02:29:15;;;;;;;;;11.00;11.00;;;;;25.96;57.23;101191.44;2038260;27;2784669;-74
2023/08/24 02:30:26;;;;;;;;;9.00;9.00;;;;;25.95;57.38;101185.22;2016861;28;2754515;-74
2023/08/24 02:31:37;;;;;;;;;10.00;9.00;;;;;25.94;57.44;101183.53;2042015;27;2769042;-75
2023/08/24 02:32:50;;;;;;;;;10.00;10.00;;;;;25.94;57.62;101193.44;2037534;27;1820074;-76
2023/08/24 02:34:00;;;;;;;;;8.00;6.33;;;;;25.94;57.25;101193.44;2032506;27;3449156;-79
2023/08/24 02:35:13;;;;;;;;;9.33;9.33;;;;;25.93;57.01;101181.81;2069359;27;2747116;-79
2023/08/24 02:36:25;;;;;;;;;8.20;8.20;;;;;25.92;57.57;101184.66;2063409;27;1820116;-79
2023/08/24 02:37:38;;;;;;;;;10.50;10.00;;;;;25.91;57.37;101178.41;2064105;27;1814377;-76
2023/08/24 02:38:49;;;;;;;;;10.00;10.00;;;;;25.90;57.71;101184.81;2009374;27;2778405;-76
2023/08/24 02:40:00;;;;;;;;;12.00;10.50;;;;;25.90;57.74;101179.44;2016884;28;2790149;-77
2023/08/24 02:41:12;;;;;;;;;10.00;10.00;;;;;25.90;57.11;101186.66;2018733;28;2782567;-77
2023/08/24 02:42:25;;;;;;;;;9.17;8.50;;;;;25.90;57.99;101181.25;2036495;27;1825298;-79
2023/08/24 02:43:36;;;;;;;;;13.00;10.00;;;;;25.88;57.64;101173.31;2010022;27;2776352;-77
2023/08/24 02:44:47;;;;;;;;;11.00;9.50;;;;;25.87;57.17;101177.00;2011861;27;2775594;-76
2023/08/24 02:46:09;;;;;;;;;11.50;11.00;;;;;25.86;57.24;101175.28;2017850;27;2787786;-76
2023/08/24 02:47:19;;;;;;;;;11.50;10.00;;;;;25.87;57.72;101182.41;2000219;28;2784651;-74
2023/08/24 02:48:32;;;;;;;;;12.00;12.00;;;;;25.87;57.36;101173.47;2019573;27;2788766;-75
2023/08/24 02:49:46;;;;;;;;;9.86;9.57;;;;;25.85;57.89;101171.75;2042135;27;3513757;-75
2023/08/24 02:50:57;;;;;;;;;8.00;8.00;;;;;25.85;57.92;101173.63;2043074;27;3470039;-77
2023/08/24 02:52:08;;;;;;;;;10.00;9.00;;;;;25.84;57.32;101171.91;2023268;28;2770551;-76
2023/08/24 02:53:19;;;;;;;;;11.00;9.50;;;;;25.82;58.17;101163.13;2016461;28;2777319;-76
2023/08/24 02:54:31;;;;;;;;;9.60;9.60;;;;;25.81;57.74;101173.03;2035465;27;1821114;-75
2023/08/24 02:55:41;;;;;;;;;9.50;9.50;;;;;25.79;58.15;101175.03;2031980;27;2761721;-76
2023/08/24 02:56:53;;;;;;;;;13.00;10.50;;;;;25.78;57.67;101173.31;2042799;28;2786765;-76
2023/08/24 02:58:04;;;;;;;;;12.00;10.00;;;;;25.77;58.18;101177.00;2001708;27;2791921;-74
2023/08/24 02:59:15;;;;;;;;;9.00;9.00;;;;;25.75;58.35;101162.84;2026541;27;2754418;-75
2023/08/24 03:00:27;;;;;;;;;11.00;10.83;;;;;25.73;57.86;101165.66;2068839;27;2791993;-75
2023/08/24 03:01:41;;;;;;;;;10.00;9.00;;;;;25.75;58.22;101170.06;2030730;27;1820647;-75
2023/08/24 03:02:53;;;;;;;;;9.60;9.60;;;;;25.74;58.33;101161.13;2046205;27;2758586;-75
2023/08/24 03:04:05;;;;;;;;;16.60;11.00;;;;;25.72;57.99;101155.91;2059131;27;1820035;-75
2023/08/24 03:05:18;;;;;;;;;12.00;10.00;;;;;25.71;57.67;101158.69;2064619;27;1820569;-75
2023/08/24 03:06:29;;;;;;;;;9.00;9.00;;;;;25.71;58.55;101158.69;2008211;27;2754447;-75
2023/08/24 03:07:40;;;;;;;;;12.00;10.00;;;;;25.71;57.80;101150.59;2030292;27;3504437;-75
2023/08/24 03:08:51;;;;;;;;;9.00;9.00;;;;;25.70;58.08;101159.69;2047845;27;2739848;-75
2023/08/24 03:10:03;;;;;;;;;13.00;10.00;;;;;25.69;58.21;101144.53;2037737;28;2779395;-74
2023/08/24 03:11:17;;;;;;;;;9.86;9.86;;;;;25.71;58.14;101145.22;2032690;27;1820098;-75
2023/08/24 03:12:28;;;;;;;;;10.50;9.00;;;;;25.71;58.18;101150.59;2032231;27;2763934;-75
2023/08/24 03:13:39;;;;;;;;;9.00;9.00;;;;;25.70;58.18;101138.16;2049809;27;2745061;-75
2023/08/24 03:14:54;;;;;;;;;11.50;10.00;;;;;25.69;58.45;101134.59;2010865;28;2779798;-75
2023/08/24 03:16:08;;;;;;;;;11.86;9.71;;;;;25.68;58.02;101134.75;2031843;27;1821665;-73
2023/08/24 03:17:21;;;;;;;;;10.00;9.00;;;;;25.66;58.44;101132.19;2052596;27;2771184;-75
2023/08/24 03:18:33;;;;;;;;;8.50;7.00;;;;;25.67;58.14;101135.75;2065364;27;1809658;-75
2023/08/24 03:19:44;;;;;;;;;9.00;9.00;;;;;25.65;58.23;101130.50;2039203;28;1825320;-75
2023/08/24 03:20:55;;;;;;;;;8.33;8.33;;;;;25.65;58.86;101132.34;2025049;27;3472111;-75
2023/08/24 03:22:06;;;;;;;;;3.00;3.00;;;;;25.64;58.15;101131.50;2035485;27;2741920;-75
2023/08/24 03:23:17;;;;;;;;;10.00;10.00;;;;;25.65;58.23;101132.34;2045768;27;2787794;-75
2023/08/24 03:24:28;;;;;;;;;8.67;7.33;;;;;25.63;58.07;101133.31;2042659;27;1830560;-75
2023/08/24 03:25:41;;;;;;;;;11.00;10.00;;;;;25.63;58.50;101133.31;2024504;27;2781520;-75
2023/08/24 03:26:51;;;;;;;;;10.00;10.00;;;;;25.65;58.74;101135.03;2031571;27;2779418;-74
2023/08/24 03:28:04;;;;;;;;;10.50;10.25;;;;;25.65;58.66;101138.59;2036964;27;1820055;-74
2023/08/24 03:29:14;;;;;;;;;10.00;10.00;;;;;25.66;58.22;101134.03;2009092;27;2784653;-73
2023/08/24 03:30:25;;;;;;;;;11.50;10.00;;;;;25.65;58.26;101130.50;2026722;27;2792158;-74
2023/08/24 03:31:36;;;;;;;;;10.00;10.00;;;;;25.65;58.29;101130.50;2045422;27;2789933;-74
2023/08/24 03:32:47;;;;;;;;;10.75;9.00;;;;;25.65;58.44;101127.81;2047021;27;2759648;-74
2023/08/24 03:33:58;;;;;;;;;9.50;9.00;;;;;25.67;58.31;101131.22;2026713;27;2752317;-74
2023/08/24 03:35:09;;;;;;;;;10.25;9.75;;;;;25.68;58.49;101129.38;2062927;27;1823251;-73
2023/08/24 03:36:19;;;;;;;;;10.00;10.00;;;;;25.68;58.24;101135.59;2010653;27;2789870;-73
2023/08/24 03:37:31;;;;;;;;;9.25;9.00;;;;;25.69;58.39;101128.38;2032041;28;1825409;-73
2023/08/24 03:38:42;;;;;;;;;12.50;11.00;;;;;25.67;58.53;101128.53;2023890;27;2791886;-73
2023/08/24 03:39:53;;;;;;;;;9.67;9.00;;;;;25.69;58.71;101128.38;2044356;27;1817026;-73
2023/08/24 03:41:06;;;;;;;;;12.67;11.67;;;;;25.68;58.74;101129.38;2042909;27;1820084;-73
2023/08/24 03:42:17;;;;;;;;;9.00;9.00;;;;;25.68;58.74;101132.06;2011980;27;2752392;-75
2023/08/24 03:43:31;;;;;;;;;11.00;9.00;;;;;25.67;58.72;101128.53;2062112;27;1819072;-75
2023/08/24 03:44:41;;;;;;;;;12.00;10.00;;;;;25.66;58.36;101128.66;2007263;27;2788801;-75
2023/08/24 03:45:52;;;;;;;;;11.00;10.00;;;;;25.65;58.81;101127.81;2018728;27;2786686;-74
2023/08/24 03:47:04;;;;;;;;;14.75;9.00;;;;;25.63;58.08;101122.56;2064659;27;1813821;-74
2023/08/24 03:48:14;;;;;;;;;10.00;10.00;;;;;25.63;58.20;101119.88;2010156;27;2776333;-74
2023/08/24 03:49:26;;;;;;;;;11.00;10.50;;;;;25.65;58.08;101127.81;2026285;27;2789826;-74
2023/08/24 03:50:36;;;;;;;;;9.00;9.00;;;;;25.66;58.06;101129.50;2001868;28;2758613;-74
2023/08/24 03:51:47;;;;;;;;;10.25;9.25;;;;;25.65;58.75;101126.97;2038200;27;2772139;-74
2023/08/24 03:53:00;;;;;;;;;8.80;8.40;;;;;25.65;58.42;101124.28;2036315;27;2732540;-76
2023/08/24 03:54:14;;;;;;;;;10.71;9.71;;;;;25.66;58.23;101134.03;2041713;27;1824221;-76
2023/08/24 03:55:24;;;;;;;;;7.50;7.50;;;;;25.67;58.47;101125.84;2019004;28;2746113;-76
2023/08/24 03:56:35;;;;;;;;;9.50;9.00;;;;;25.67;58.43;101124.97;2022394;27;2764804;-76
2023/08/24 03:57:48;;;;;;;;;10.67;10.67;;;;;25.66;58.61;101128.66;2045560;27;2787778;-76
2023/08/24 03:59:00;;;;;;;;;10.00;10.00;;;;;25.65;58.04;101119.75;2029946;27;3495043;-76
2023/08/24 04:00:12;;;;;;;;;10.00;10.00;;;;;25.65;58.20;101117.06;2048011;27;2788798;-76
2023/08/24 04:01:22;;;;;;;;;10.00;10.00;;;;;25.65;57.99;101125.13;2011671;27;2781473;-75
2023/08/24 04:02:33;;;;;;;;;8.00;8.00;;;;;25.65;58.68;101118.88;2026305;27;2744011;-76
2023/08/24 04:03:44;;;;;;;;;11.00;10.00;;;;;25.65;58.89;101124.28;2041443;27;2791905;-76
2023/08/24 04:04:55;;;;;;;;;10.50;10.00;;;;;25.64;58.45;101123.41;2038998;27;2787759;-76
2023/08/24 04:06:07;;;;;;;;;11.20;10.40;;;;;25.64;58.45;101120.72;2039069;27;1822144;-75
2023/08/24 04:07:18;;;;;;;;;10.00;8.00;;;;;25.63;58.23;101113.66;2031945;27;2766899;-75
2023/08/24 04:08:29;;;;;;;;;10.75;10.50;;;;;25.63;58.59;101117.19;2040520;27;1821159;-74
2023/08/24 04:09:40;;;;;;;;;11.00;11.00;;;;;25.62;58.96;101117.34;2009402;27;2791965;-75
2023/08/24 04:10:50;;;;;;;;;11.00;10.00;;;;;25.58;58.45;101122.13;2012453;27;2778356;-74
2023/08/24 04:12:01;;;;;;;;;8.75;8.25;;;;;25.60;58.86;101122.00;2062850;27;1820592;-75
2023/08/24 04:13:12;;;;;;;;;13.00;12.00;;;;;25.62;58.51;101123.56;2007085;27;2815227;-75
2023/08/24 04:14:23;;;;;;;;;11.00;10.00;;;;;25.63;58.69;101117.19;2027747;27;2779398;-76
2023/08/24 04:15:35;;;;;;;;;10.00;9.00;;;;;25.66;58.25;101115.19;2042909;27;1820182;-76
2023/08/24 04:16:45;;;;;;;;;9.50;8.00;;;;;25.67;58.38;101117.75;2031929;27;2757548;-76
2023/08/24 04:17:56;;;;;;;;;10.00;8.50;;;;;25.69;58.25;101115.78;2018674;27;2766911;-77
2023/08/24 04:19:09;;;;;;;;;11.20;9.00;;;;;25.68;58.21;101111.38;2032772;27;1820115;-77
2023/08/24 04:20:19;;;;;;;;;12.00;9.00;;;;;25.69;57.88;101105.00;2008614;27;2766990;-77
2023/08/24 04:21:31;;;;;;;;;10.00;10.00;;;;;25.70;58.26;101104.03;2023848;27;2784614;-76
2023/08/24 04:22:42;;;;;;;;;11.00;10.00;;;;;25.71;58.08;101112.94;2010768;27;2788113;-76
2023/08/24 04:23:53;;;;;;;;;12.00;11.00;;;;;25.71;57.95;101102.16;1993566;28;2788761;-76
2023/08/24 04:25:04;;;;;;;;;10.50;9.00;;;;;25.73;58.06;101102.94;2004579;28;2769013;-76
2023/08/24 04:26:18;;;;;;;;;10.14;10.14;;;;;25.71;57.96;101103.00;2033451;27;1820126;-76
2023/08/24 04:27:29;;;;;;;;;10.00;9.00;;;;;25.72;58.42;101101.19;2031136;27;2772146;-76
2023/08/24 04:28:40;;;;;;;;;12.50;10.00;;;;;25.73;57.88;101100.22;2022272;27;2784670;-76
2023/08/24 04:29:51;;;;;;;;;12.00;10.00;;;;;25.75;58.70;101108.16;2035097;27;1812845;-76
2023/08/24 04:31:04;;;;;;;;;11.33;9.67;;;;;25.78;58.20;101103.31;2041957;27;1825369;-76
2023/08/24 04:32:14;;;;;;;;;11.00;11.00;;;;;25.80;57.56;101101.38;2008837;27;2789873;-76
2023/08/24 04:33:25;;;;;;;;;11.00;11.00;;;;;25.85;57.40;101109.00;2027275;27;2787727;-76
2023/08/24 04:34:36;;;;;;;;;9.00;9.00;;;;;25.87;57.02;101100.78;2028348;27;2763383;-76
2023/08/24 04:35:50;;;;;;;;;9.80;9.80;;;;;25.92;57.55;101101.19;2037841;27;1820105;-76
2023/08/24 04:37:01;;;;;;;;;10.00;10.00;;;;;25.94;57.01;101101.91;2029823;27;2789891;-77
2023/08/24 04:38:12;;;;;;;;;9.50;9.50;;;;;25.97;57.11;101098.94;2004228;27;2768017;-75
2023/08/24 04:39:25;;;;;;;;;12.40;10.20;;;;;25.99;56.39;101096.94;2053472;27;2799200;-75
2023/08/24 04:40:53;;;;;;;;;10.50;9.00;;;;;26.02;56.27;101098.50;2024685;27;2760676;-73
2023/08/24 04:42:03;;;;;;;;;11.50;11.00;;;;;26.03;56.39;101089.41;2032352;27;2807534;-73
2023/08/24 04:43:14;;;;;;;;;11.00;11.00;;;;;26.04;56.15;101091.97;2022440;27;2787736;-73
2023/08/24 04:44:26;;;;;;;;;14.67;11.67;;;;;26.07;56.77;101094.38;2026775;27;2809622;-73
2023/08/24 04:45:37;;;;;;;;;7.00;7.00;;;;;26.09;56.25;101096.06;2033328;27;2735783;-75
2023/08/24 04:46:49;;;;;;;;;11.50;11.00;;;;;26.10;56.31;101095.06;2052142;27;2786722;-76
2023/08/24 04:48:02;;;;;;;;;9.20;9.00;;;;;26.12;55.86;101093.09;2030349;27;2752300;-75
2023/08/24 04:49:13;;;;;;;;;12.00;11.00;;;;;26.13;56.49;101084.84;2033997;27;2790353;-74
2023/08/24 04:50:24;;;;;;;;;12.50;9.00;;;;;26.15;56.22;101087.41;2027947;27;2780528;-74
2023/08/24 04:51:35;;;;;;;;;11.50;10.00;;;;;26.19;56.20;101088.81;2026588;27;2789803;-73
2023/08/24 04:52:46;;;;;;;;;9.00;9.00;;;;;26.21;55.90;101085.97;2025749;27;2760685;-73
2023/08/24 04:53:59;;;;;;;;;10.67;8.33;;;;;26.21;55.32;101081.44;2043408;27;2767988;-73
2023/08/24 04:55:10;;;;;;;;;13.00;12.80;;;;;26.22;55.64;101079.59;2060912;27;1823725;-75
2023/08/24 04:56:22;;;;;;;;;10.67;10.67;;;;;26.24;55.29;101083.84;2022208;28;2784671;-75
2023/08/24 04:57:36;;;;;;;;;9.71;9.57;;;;;26.24;55.87;101081.16;2057883;27;3499165;-74
2023/08/24 04:58:57;;;;;;;;;8.00;8.00;;;;;26.27;55.53;101085.41;2050262;27;2747143;-74
2023/08/24 05:00:15;;;;;;;;;12.60;11.00;;;;;26.28;55.20;101082.53;2052984;27;2786697;-74
2023/08/24 05:01:31;;;;;;;;;12.00;12.00;;;;;26.30;55.26;101085.94;2005502;27;2794068;-74
2023/08/24 05:02:44;;;;;;;;;10.17;7.67;;;;;26.32;55.41;101083.13;2042677;27;1823311;-73
2023/08/24 05:03:55;;;;;;;;;11.00;10.00;;;;;26.33;55.46;101086.63;2010206;27;2781977;-73
2023/08/24 05:05:07;;;;;;;;;9.50;9.50;;;;;26.33;55.52;101090.19;2029680;27;2757532;-74
2023/08/24 05:06:18;;;;;;;;;13.00;11.00;;;;;26.32;55.41;101085.81;2008483;27;2787799;-75
2023/08/24 05:07:30;;;;;;;;;9.67;9.67;;;;;26.32;55.02;101085.81;2007417;27;2772135;-73
2023/08/24 05:08:41;;;;;;;;;10.00;10.00;;;;;26.29;55.70;101086.09;2032668;27;2787075;-73
2023/08/24 05:09:53;;;;;;;;;10.50;10.50;;;;;26.28;55.51;101082.53;2036758;27;2789879;-72
2023/08/24 05:11:16;;;;;;;;;11.00;11.00;;;;;26.28;55.26;101087.06;2010847;27;2781469;-75
2023/08/24 05:12:27;;;;;;;;;15.50;11.00;;;;;26.28;55.37;101087.94;2008772;27;2796438;-75
2023/08/24 05:13:38;;;;;;;;;12.00;11.50;;;;;26.27;55.27;101086.22;2017561;28;2789827;-75
2023/08/24 05:14:49;;;;;;;;;12.00;12.00;;;;;26.27;55.39;101091.59;2017832;27;2782576;-76
2023/08/24 05:16:00;;;;;;;;;11.00;9.00;;;;;26.29;55.04;101086.09;2018451;28;2774584;-75
2023/08/24 05:17:11;;;;;;;;;12.00;10.00;;;;;26.29;55.36;101089.63;2020123;27;2779509;-75
2023/08/24 05:18:22;;;;;;;;;12.50;12.00;;;;;26.30;55.79;101083.25;2007654;27;2791894;-75
2023/08/24 05:19:33;;;;;;;;;10.00;10.00;;;;;26.32;55.08;101082.25;2027145;27;2773225;-73
2023/08/24 05:20:44;;;;;;;;;11.50;11.50;;;;;26.34;55.63;101085.66;2026873;27;2791887;-72
2023/08/24 05:21:55;;;;;;;;;11.00;11.00;;;;;26.35;55.47;101085.50;2027810;27;2786737;-72
2023/08/24 05:23:06;;;;;;;;;12.00;10.50;;;;;26.35;55.68;101085.50;2020395;27;2786702;-72
2023/08/24 05:24:17;;;;;;;;;8.50;8.00;;;;;26.36;55.56;101089.03;2027387;27;2746122;-72